Time;durP1;ratioP1;P1;durP2;ratioP2;P2;SDS_P1;SDS_P2;PMS_P1;PMS_P2;Temp;Humidity;BMP_temperature;BMP_pressure;BME280_temperature;BME280_humidity;BME280_pressure;Samples;Min_cycle;Max_cycle;Signal;HPM_P1;HPM_P2
2022/07/28 00:00:39;;;;;;;;;1.67;0.67;;;;;16.83;53.57;102089.63;5013782;28;9771;-67
2022/07/28 00:03:06;;;;;;;;;1.00;1.00;;;;;16.72;53.90;102082.88;5013597;28;9077;-66
2022/07/28 00:05:32;;;;;;;;;1.00;0.00;;;;;16.73;54.08;102075.56;5014733;28;8891;-66
2022/07/28 00:07:59;;;;;;;;;0.00;0.00;;;;;16.82;54.05;102084.41;5006287;28;8889;-66
2022/07/28 00:10:26;;;;;;;;;0.25;0.25;;;;;16.78;54.07;102086.69;5007297;28;8841;-68
2022/07/28 00:12:52;;;;;;;;;0.00;0.00;;;;;16.64;55.11;102088.47;5015007;28;8851;-65
2022/07/28 00:15:19;;;;;;;;;0.00;0.00;;;;;16.66;54.89;102083.69;5014688;28;8819;-66
2022/07/28 00:17:45;;;;;;;;;0.00;0.00;;;;;16.74;55.16;102083.53;5014668;28;9738;-66
2022/07/28 00:20:12;;;;;;;;;1.00;0.00;;;;;16.65;55.04;102079.31;5014754;28;8910;-65
2022/07/28 00:22:43;;;;;;;;;0.75;0.00;;;;;16.61;55.57;102086.19;5012811;28;8916;-65
2022/07/28 00:25:10;;;;;;;;;0.00;0.00;;;;;16.61;55.55;102072.59;5006733;28;8819;-65
2022/07/28 00:27:37;;;;;;;;;0.00;0.00;;;;;16.66;55.57;102069.28;5013844;28;8819;-67
2022/07/28 00:30:07;;;;;;;;;0.00;0.00;;;;;16.63;55.58;102066.94;5006836;28;9067;-65
2022/07/28 00:32:34;;;;;;;;;0.00;0.00;;;;;16.61;55.88;102059.00;5002973;28;9537;-65
2022/07/28 00:35:01;;;;;;;;;1.00;0.00;;;;;16.61;55.84;102067.16;5006674;28;8821;-65
2022/07/28 00:37:28;;;;;;;;;0.00;0.00;;;;;16.62;55.35;102057.97;5000521;28;8901;-66
2022/07/28 00:39:55;;;;;;;;;1.00;0.00;;;;;16.52;55.64;102068.38;5006613;28;9003;-66
2022/07/28 00:42:21;;;;;;;;;0.00;0.00;;;;;16.49;55.63;102064.19;5014274;28;8843;-66
2022/07/28 00:44:48;;;;;;;;;0.00;0.00;;;;;16.46;55.78;102061.88;5012844;28;9786;-65
2022/07/28 00:47:14;;;;;;;;;1.00;1.00;;;;;16.49;55.77;102056.03;5010116;28;8910;-67
2022/07/28 00:49:44;;;;;;;;;0.00;0.00;;;;;16.52;55.43;102061.06;5011908;28;8922;-67
2022/07/28 00:52:11;;;;;;;;;0.00;0.00;;;;;16.53;55.20;102056.47;5011466;28;9114;-67
2022/07/28 00:54:38;;;;;;;;;1.67;1.00;;;;;16.54;55.07;102060.88;5003820;28;9665;-67
2022/07/28 00:57:05;;;;;;;;;0.00;0.00;;;;;16.52;55.15;102054.78;5011000;28;9133;-67
2022/07/28 00:59:31;;;;;;;;;0.25;0.00;;;;;16.53;55.14;102056.47;5007802;28;8991;-67
2022/07/28 01:02:00;;;;;;;;;0.00;0.00;;;;;16.52;54.86;102047.47;5006581;28;8855;-67
2022/07/28 01:04:28;;;;;;;;;0.00;0.00;;;;;16.55;55.13;102055.22;5008777;28;8893;-65
2022/07/28 01:07:10;;;;;;;;;0.00;0.00;;;;;16.64;55.02;102063.19;4997953;28;8921;-66
2022/07/28 01:10:05;;;;;;;;;0.00;0.00;;;;;16.66;55.24;102053.78;5000388;28;9110;-65
2022/07/28 01:12:31;;;;;;;;;0.00;0.00;;;;;16.66;55.15;102050.25;5001670;28;9048;-65
2022/07/28 01:15:18;;;;;;;;;0.00;0.00;;;;;16.66;55.38;102047.53;5003606;28;8945;-67
2022/07/28 01:18:19;;;;;;;;;0.00;0.00;;;;;16.64;55.87;102045.00;5010628;28;9118;-67
2022/07/28 01:21:09;;;;;;;;;0.00;0.00;;;;;16.54;55.97;102041.84;4981167;28;9086;-66
2022/07/28 01:23:54;;;;;;;;;0.00;0.00;;;;;16.48;56.32;102034.47;5011202;28;8929;-67
2022/07/28 01:26:40;;;;;;;;;0.33;0.00;;;;;16.46;56.70;102034.69;5011533;28;8968;-66
2022/07/28 01:29:33;;;;;;;;;0.00;0.00;;;;;16.50;56.44;102035.13;5011439;28;9182;-66
2022/07/28 01:32:20;;;;;;;;;0.00;0.00;;;;;16.55;56.33;102040.78;5011466;28;9035;-67
2022/07/28 01:35:08;;;;;;;;;0.00;0.00;;;;;16.50;56.06;102037.84;5010264;28;9212;-67
2022/07/28 01:37:42;;;;;;;;;0.00;0.00;;;;;16.49;56.41;102030.75;5004641;28;9014;-67
2022/07/28 01:40:12;;;;;;;;;0.00;0.00;;;;;16.48;56.67;102020.91;4995608;28;8902;-67
2022/07/28 01:42:45;;;;;;;;;0.00;0.00;;;;;16.41;56.29;102015.47;4991326;28;9069;-67
2022/07/28 01:45:13;;;;;;;;;1.00;0.33;;;;;16.42;56.22;102017.13;4996250;28;8940;-65
2022/07/28 01:47:42;;;;;;;;;0.67;0.67;;;;;16.41;56.31;102015.47;5010876;28;9036;-67
2022/07/28 01:50:10;;;;;;;;;0.00;0.00;;;;;16.37;56.12;102008.75;4993423;28;9078;-67
2022/07/28 01:52:41;;;;;;;;;0.33;0.33;;;;;16.34;56.68;102019.19;5006508;28;9025;-67
2022/07/28 01:55:09;;;;;;;;;0.00;0.00;;;;;16.36;56.51;102020.66;5007006;28;8944;-66
2022/07/28 01:57:36;;;;;;;;;1.67;0.67;;;;;16.39;56.69;102022.13;5003835;28;9087;-65
2022/07/28 02:00:08;;;;;;;;;0.00;0.00;;;;;16.41;56.32;102011.91;4996142;28;9091;-67
2022/07/28 02:02:39;;;;;;;;;0.00;0.00;;;;;16.41;56.42;102015.47;4992263;28;8960;-66
2022/07/28 02:05:08;;;;;;;;;0.67;0.00;;;;;16.40;56.53;102008.31;4999296;28;8984;-67
2022/07/28 02:07:37;;;;;;;;;0.00;0.00;;;;;16.41;56.69;102010.03;5008212;28;9081;-65
2022/07/28 02:10:05;;;;;;;;;0.00;0.00;;;;;16.42;56.48;102011.69;5010706;28;9629;-66
2022/07/28 02:12:36;;;;;;;;;0.00;0.00;;;;;16.41;56.88;102015.47;4993927;28;9111;-66
2022/07/28 02:15:07;;;;;;;;;0.00;0.00;;;;;16.29;56.84;102008.94;4973738;28;9065;-66
2022/07/28 02:17:35;;;;;;;;;0.00;0.00;;;;;16.23;57.30;102010.56;4991015;28;9029;-66
2022/07/28 02:20:04;;;;;;;;;0.00;0.00;;;;;16.26;57.04;102012.06;4992894;28;9223;-67
2022/07/28 02:22:32;;;;;;;;;0.00;0.00;;;;;16.30;57.21;102006.00;5007166;28;8917;-67
2022/07/28 02:24:59;;;;;;;;;0.00;0.00;;;;;16.35;57.04;101999.97;5002947;28;9022;-68
2022/07/28 02:27:37;;;;;;;;;0.00;0.00;;;;;16.37;57.05;102003.31;5010329;28;8995;-66
2022/07/28 02:30:23;;;;;;;;;1.00;1.00;;;;;16.36;57.17;102006.22;5010726;28;8981;-67
2022/07/28 02:32:52;;;;;;;;;1.00;0.00;;;;;16.33;56.61;102004.78;5007254;28;8877;-68
2022/07/28 02:35:38;;;;;;;;;0.00;0.00;;;;;16.28;57.37;101990.94;5001464;28;9084;-66
2022/07/28 02:38:09;;;;;;;;;0.00;0.00;;;;;16.31;57.13;102002.25;5002143;28;8989;-67
2022/07/28 02:40:39;;;;;;;;;0.00;0.00;;;;;16.33;57.00;101996.63;5009967;28;9212;-66
2022/07/28 02:43:11;;;;;;;;;0.00;0.00;;;;;16.32;56.61;101995.75;5009682;28;9016;-67
2022/07/28 02:45:42;;;;;;;;;0.00;0.00;;;;;16.34;56.26;101997.44;5002398;28;9073;-67
2022/07/28 02:48:13;;;;;;;;;0.00;0.00;;;;;16.32;56.46;101984.88;5005880;28;8974;-66
2022/07/28 02:50:43;;;;;;;;;0.25;0.00;;;;;16.36;56.41;101984.47;5009563;28;9852;-67
2022/07/28 02:53:13;;;;;;;;;0.33;0.00;;;;;16.38;56.62;101987.84;5003033;28;8958;-66
2022/07/28 02:55:47;;;;;;;;;0.67;0.67;;;;;16.37;56.36;101992.44;4997258;28;9058;-66
2022/07/28 02:58:15;;;;;;;;;0.00;0.00;;;;;16.34;56.63;101990.13;5013995;28;8977;-66
2022/07/28 03:00:43;;;;;;;;;0.00;0.00;;;;;16.29;56.48;101988.03;5014020;28;8910;-66
2022/07/28 03:03:10;;;;;;;;;0.00;0.00;;;;;16.23;56.68;101990.72;5006754;28;9079;-66
2022/07/28 03:05:39;;;;;;;;;0.00;0.00;;;;;16.23;56.90;101991.56;5006899;28;9091;-67
2022/07/28 03:08:06;;;;;;;;;0.00;0.00;;;;;16.26;57.01;101993.88;5006674;28;8920;-66
2022/07/28 03:10:32;;;;;;;;;0.00;0.00;;;;;16.27;57.14;101995.53;4994314;28;9084;-67
2022/07/28 03:13:05;;;;;;;;;0.00;0.00;;;;;16.25;57.18;101985.94;4999361;28;8991;-65
2022/07/28 03:15:34;;;;;;;;;0.00;0.00;;;;;16.24;57.13;101990.50;5002440;28;8920;-66
2022/07/28 03:18:03;;;;;;;;;0.00;0.00;;;;;16.20;56.66;101986.50;4994066;28;8998;-66
2022/07/28 03:20:31;;;;;;;;;0.00;0.00;;;;;16.13;56.97;102001.97;5003284;28;8992;-66
2022/07/28 03:22:58;;;;;;;;;0.00;0.00;;;;;16.06;57.07;102001.09;5008130;28;8923;-65
2022/07/28 03:25:36;;;;;;;;;1.00;0.00;;;;;16.01;56.74;101999.00;5013935;28;9070;-66
2022/07/28 03:28:06;;;;;;;;;0.00;0.00;;;;;16.05;56.95;102004.88;5012941;28;9108;-67
2022/07/28 03:30:40;;;;;;;;;1.00;1.00;;;;;16.05;57.01;102010.31;5013554;28;9003;-66
2022/07/28 03:33:07;;;;;;;;;1.00;0.00;;;;;15.95;56.51;102005.22;5010665;28;8990;-66
2022/07/28 03:35:37;;;;;;;;;0.00;0.00;;;;;15.91;57.19;102014.81;5005391;28;9133;-65
2022/07/28 03:38:10;;;;;;;;;0.00;0.00;;;;;15.93;57.45;102015.47;5008661;28;9074;-67
2022/07/28 03:40:37;;;;;;;;;0.00;0.00;;;;;16.00;57.33;102020.91;5013165;28;9340;-65
2022/07/28 03:43:07;;;;;;;;;1.00;1.00;;;;;16.06;57.41;102017.41;5013353;28;9197;-66
2022/07/28 03:45:34;;;;;;;;;0.00;0.00;;;;;16.11;56.91;102019.50;5012507;28;9771;-66
2022/07/28 03:48:01;;;;;;;;;0.00;0.00;;;;;16.13;56.97;102015.56;5009365;28;9163;-65
2022/07/28 03:50:30;;;;;;;;;0.00;0.00;;;;;16.15;57.28;102024.34;5004271;28;9128;-66
2022/07/28 03:52:57;;;;;;;;;0.00;0.00;;;;;16.15;57.10;102021.63;5013171;28;8929;-65
2022/07/28 03:55:25;;;;;;;;;1.00;0.00;;;;;16.16;56.80;102020.56;5013203;28;8915;-66
2022/07/28 03:57:52;;;;;;;;;1.00;1.00;;;;;16.13;56.74;102021.00;5012844;28;9084;-66
2022/07/28 04:00:19;;;;;;;;;1.00;0.00;;;;;16.10;56.85;102024.09;5013179;28;9116;-64
2022/07/28 04:02:46;;;;;;;;;0.00;0.00;;;;;16.10;56.83;102028.69;4994230;28;9003;-65
2022/07/28 04:05:15;;;;;;;;;0.00;0.00;;;;;16.08;56.85;102023.44;5004752;28;9113;-65
2022/07/28 04:07:42;;;;;;;;;0.00;0.00;;;;;16.06;56.51;102023.66;4993184;28;9019;-64
2022/07/28 04:10:11;;;;;;;;;0.00;0.00;;;;;15.99;56.53;102021.97;4993271;28;9074;-65
2022/07/28 04:12:54;;;;;;;;;0.00;0.00;;;;;15.96;56.96;102028.66;4993314;28;9073;-67
2022/07/28 04:15:21;;;;;;;;;1.00;1.00;;;;;15.96;56.86;102023.22;4993116;28;9056;-66
2022/07/28 04:17:49;;;;;;;;;0.00;0.00;;;;;15.95;57.06;102029.66;5003565;28;9061;-66
2022/07/28 04:20:17;;;;;;;;;0.00;0.00;;;;;15.96;56.97;102025.94;5001778;28;9059;-66
2022/07/28 04:22:44;;;;;;;;;0.00;0.00;;;;;15.98;57.20;102026.56;4993150;28;9042;-65
2022/07/28 04:25:13;;;;;;;;;0.00;0.00;;;;;15.98;57.14;102018.41;4993034;28;9112;-66
2022/07/28 04:27:41;;;;;;;;;1.00;1.00;;;;;15.99;57.35;102013.81;5002757;28;9058;-66
2022/07/28 04:30:16;;;;;;;;;0.00;0.00;;;;;15.99;57.41;102014.66;5003203;28;9049;-65
2022/07/28 04:32:44;;;;;;;;;2.00;1.00;;;;;16.00;57.67;102015.47;5003174;28;9187;-66
2022/07/28 04:35:11;;;;;;;;;1.00;1.00;;;;;15.93;57.74;102015.47;5008512;28;9066;-65
2022/07/28 04:37:44;;;;;;;;;2.00;0.00;;;;;15.91;58.21;102011.25;5012143;28;9069;-62
2022/07/28 04:40:11;;;;;;;;;1.67;0.00;;;;;15.92;57.87;102021.94;5012404;28;9050;-65
2022/07/28 04:42:39;;;;;;;;;0.00;0.00;;;;;15.92;58.29;102026.50;5012145;28;9168;-64
2022/07/28 04:45:07;;;;;;;;;0.00;0.00;;;;;15.90;58.16;102024.00;5008922;28;10052;-65
2022/07/28 04:47:33;;;;;;;;;1.00;1.00;;;;;15.90;58.20;102028.59;4993660;28;9217;-65
2022/07/28 04:50:00;;;;;;;;;0.67;0.33;;;;;15.89;58.15;102024.22;5006269;28;9165;-64
2022/07/28 04:52:27;;;;;;;;;0.00;0.00;;;;;15.87;58.49;102029.00;5012447;28;9261;-65
2022/07/28 04:54:53;;;;;;;;;0.00;0.00;;;;;15.91;58.25;102027.56;5012917;28;9002;-65
2022/07/28 04:57:19;;;;;;;;;0.00;0.00;;;;;15.95;58.49;102026.94;4992438;28;9088;-65
2022/07/28 04:59:47;;;;;;;;;1.00;0.00;;;;;15.99;58.33;102035.53;5000573;28;9009;-65
2022/07/28 05:02:15;;;;;;;;;0.00;0.00;;;;;16.01;58.21;102028.03;5012292;28;9239;-66
2022/07/28 05:04:42;;;;;;;;;1.00;0.00;;;;;16.01;58.09;102033.47;5011823;28;9214;-66
2022/07/28 05:07:08;;;;;;;;;2.00;1.00;;;;;15.92;58.28;102026.50;5011557;28;9052;-66
2022/07/28 05:09:38;;;;;;;;;2.00;1.00;;;;;15.90;58.11;102028.59;5011725;28;9003;-66
2022/07/28 05:12:05;;;;;;;;;1.00;1.00;;;;;15.92;57.82;102030.09;5010449;28;9232;-66
2022/07/28 05:14:31;;;;;;;;;0.33;0.33;;;;;15.87;57.74;102034.41;5003187;28;9152;-66
2022/07/28 05:16:58;;;;;;;;;0.00;0.00;;;;;15.76;57.63;102024.97;5010175;28;9155;-65
2022/07/28 05:19:24;;;;;;;;;0.00;0.00;;;;;15.72;58.04;102032.69;5003381;28;9077;-66
2022/07/28 05:21:51;;;;;;;;;0.00;0.00;;;;;15.76;57.60;102025.81;5007491;28;9254;-66
2022/07/28 05:24:17;;;;;;;;;1.00;1.00;;;;;15.79;57.33;102032.69;5011485;28;9156;-66
2022/07/28 05:26:44;;;;;;;;;1.00;1.00;;;;;15.77;57.42;102030.19;4991152;28;9004;-66
2022/07/28 05:29:10;;;;;;;;;1.00;1.00;;;;;15.75;57.72;102028.72;5003807;28;9257;-66
2022/07/28 05:31:37;;;;;;;;;0.00;0.00;;;;;15.74;57.66;102030.59;5011111;28;9264;-66
2022/07/28 05:34:04;;;;;;;;;1.67;1.67;;;;;15.69;57.88;102027.66;5011278;28;9214;-66
2022/07/28 05:36:31;;;;;;;;;0.00;0.00;;;;;15.71;57.83;102027.44;5011321;28;9763;-65
2022/07/28 05:38:57;;;;;;;;;0.00;0.00;;;;;15.75;57.72;102031.44;5011202;28;9128;-65
2022/07/28 05:41:24;;;;;;;;;0.00;0.00;;;;;15.64;57.67;102021.09;5006144;28;9269;-66
2022/07/28 05:43:50;;;;;;;;;0.00;0.00;;;;;15.59;58.41;102027.94;5010153;28;9146;-67
2022/07/28 05:46:16;;;;;;;;;0.00;0.00;;;;;15.67;58.51;102026.16;4993559;28;9236;-66
2022/07/28 05:48:44;;;;;;;;;0.67;0.67;;;;;15.78;58.29;102031.03;5010866;28;9288;-66
2022/07/28 05:51:11;;;;;;;;;0.00;0.00;;;;;15.87;57.51;102031.72;5010991;28;9234;-66
2022/07/28 05:53:37;;;;;;;;;0.67;0.67;;;;;15.80;57.55;102032.53;5009639;28;9264;-67
2022/07/28 05:56:04;;;;;;;;;0.00;0.00;;;;;15.76;58.07;102022.25;5006746;28;9208;-66
2022/07/28 05:58:30;;;;;;;;;0.00;0.00;;;;;15.87;57.93;102029.00;5002553;28;10033;-67
2022/07/28 06:01:01;;;;;;;;;0.00;0.00;;;;;15.99;57.75;102033.66;5005223;28;9238;-67
2022/07/28 06:03:31;;;;;;;;;0.67;0.00;;;;;16.10;57.45;102037.69;5010460;28;9164;-67
2022/07/28 06:05:58;;;;;;;;;0.00;0.00;;;;;16.18;57.21;102028.53;5010928;28;9140;-67
2022/07/28 06:08:42;;;;;;;;;1.00;0.00;;;;;16.27;56.72;102030.03;4997227;28;9138;-67
2022/07/28 06:11:10;;;;;;;;;0.33;0.33;;;;;16.26;56.09;102031.91;5004142;28;9005;-66
2022/07/28 06:13:37;;;;;;;;;0.00;0.00;;;;;16.31;56.48;102039.44;5000854;28;9128;-66
2022/07/28 06:16:05;;;;;;;;;1.00;0.00;;;;;16.47;55.47;102035.53;4998696;28;9069;-67
2022/07/28 06:18:38;;;;;;;;;0.00;0.00;;;;;16.59;55.70;102043.94;5010332;28;8842;-67
2022/07/28 06:21:05;;;;;;;;;0.00;0.00;;;;;16.61;54.98;102041.84;5010365;28;8932;-67
2022/07/28 06:23:31;;;;;;;;;1.00;0.67;;;;;16.52;54.45;102042.03;5010443;28;9185;-66
2022/07/28 06:25:57;;;;;;;;;0.67;0.67;;;;;16.40;54.93;102040.94;5010274;28;9603;-66
2022/07/28 06:28:24;;;;;;;;;0.00;0.00;;;;;16.29;55.08;102041.53;5010875;28;8933;-67
2022/07/28 06:30:51;;;;;;;;;0.00;0.00;;;;;16.26;55.18;102047.38;5014094;28;9310;-66
2022/07/28 06:33:17;;;;;;;;;0.67;0.00;;;;;16.24;55.21;102050.28;5014434;28;9198;-66
2022/07/28 06:35:44;;;;;;;;;0.00;0.00;;;;;16.25;55.48;102043.00;5012597;28;9096;-67
2022/07/28 06:38:18;;;;;;;;;0.00;0.00;;;;;16.21;55.32;102053.41;5004485;28;9061;-67
2022/07/28 06:40:45;;;;;;;;;0.33;0.33;;;;;16.25;55.31;102046.53;5005876;28;9118;-66
2022/07/28 06:43:13;;;;;;;;;0.00;0.00;;;;;16.33;55.61;102042.81;5005909;28;8992;-66
2022/07/28 06:45:40;;;;;;;;;0.75;0.00;;;;;16.41;55.38;102048.06;5013932;28;9011;-66
2022/07/28 06:48:07;;;;;;;;;1.00;0.00;;;;;16.41;55.50;102048.06;5011879;28;8811;-66
2022/07/28 06:50:34;;;;;;;;;0.00;0.00;;;;;16.51;55.35;102053.13;5004647;28;9006;-66
2022/07/28 06:53:01;;;;;;;;;0.00;0.00;;;;;16.46;55.31;102058.31;5014048;28;9899;-66
2022/07/28 06:55:30;;;;;;;;;0.33;0.33;;;;;16.42;55.68;102044.31;5012473;28;9757;-66
2022/07/28 06:58:02;;;;;;;;;0.00;0.00;;;;;16.47;55.57;102046.41;5007535;28;9790;-66
2022/07/28 07:00:29;;;;;;;;;2.00;0.00;;;;;16.50;55.58;102038.69;5002201;28;8997;-67
2022/07/28 07:02:56;;;;;;;;;0.00;0.00;;;;;16.55;55.32;102044.34;5007633;28;8981;-67
2022/07/28 07:05:22;;;;;;;;;1.33;0.33;;;;;16.61;54.82;102044.56;5013917;28;8920;-67
2022/07/28 07:07:48;;;;;;;;;0.00;0.00;;;;;16.64;54.43;102046.88;5008491;28;8973;-66
2022/07/28 07:10:15;;;;;;;;;0.25;0.25;;;;;16.68;54.82;102046.25;5007698;28;8953;-66
2022/07/28 07:12:41;;;;;;;;;1.00;1.00;;;;;16.77;54.61;102046.94;5005317;28;8819;-66
2022/07/28 07:15:09;;;;;;;;;0.00;0.00;;;;;16.87;54.56;102043.81;5013841;28;9025;-66
2022/07/28 07:17:36;;;;;;;;;1.67;0.33;;;;;16.92;54.39;102041.31;5003073;28;8920;-66
2022/07/28 07:20:05;;;;;;;;;0.50;0.50;;;;;16.96;53.50;102045.28;5007020;28;8929;-67
2022/07/28 07:22:32;;;;;;;;;1.67;1.00;;;;;16.79;52.68;102042.97;4998845;28;8823;-66
2022/07/28 07:25:07;;;;;;;;;1.00;1.00;;;;;16.73;53.01;102032.06;5003653;28;9011;-66
2022/07/28 07:27:34;;;;;;;;;1.00;1.00;;;;;16.70;52.85;102038.75;5004931;28;9015;-66
2022/07/28 07:30:01;;;;;;;;;1.00;0.67;;;;;16.68;53.14;102037.25;5006068;28;9038;-66
2022/07/28 07:32:27;;;;;;;;;0.00;0.00;;;;;16.70;53.57;102024.31;5008641;28;8908;-66
2022/07/28 07:34:54;;;;;;;;;0.00;0.00;;;;;16.79;52.79;102034.81;5011873;28;8883;-66
2022/07/28 07:37:20;;;;;;;;;0.00;0.00;;;;;16.89;52.63;102028.97;5011088;28;8974;-66
2022/07/28 07:39:47;;;;;;;;;0.00;0.00;;;;;16.93;52.22;102026.66;5011234;28;8823;-66
2022/07/28 07:42:13;;;;;;;;;1.00;0.00;;;;;16.96;52.19;102020.81;5006730;28;8851;-66
2022/07/28 07:44:40;;;;;;;;;0.50;0.50;;;;;17.05;52.64;102025.00;5007371;28;8838;-66
2022/07/28 07:47:15;;;;;;;;;1.00;1.00;;;;;17.10;51.39;102027.13;5007785;28;9556;-67
2022/07/28 07:49:41;;;;;;;;;0.00;0.00;;;;;17.16;51.24;102026.28;5004618;28;9006;-66
2022/07/28 07:52:13;;;;;;;;;0.00;0.00;;;;;17.12;50.54;102022.28;5008463;28;8831;-69
2022/07/28 07:54:40;;;;;;;;;1.00;1.00;;;;;17.08;50.43;102029.19;5005059;28;8900;-66
2022/07/28 07:57:06;;;;;;;;;0.25;0.25;;;;;17.04;51.09;102026.06;5004884;28;8855;-66
2022/07/28 07:59:32;;;;;;;;;0.00;0.00;;;;;17.04;50.98;102026.88;5003404;28;9618;-67
2022/07/28 08:01:59;;;;;;;;;1.75;1.00;;;;;17.18;51.04;102016.03;5001409;28;8944;-66
2022/07/28 08:04:26;;;;;;;;;0.00;0.00;;;;;17.24;51.21;102024.19;5006035;28;8847;-66
2022/07/28 08:06:54;;;;;;;;;0.00;0.00;;;;;17.33;50.99;102021.25;5000541;28;8861;-66
2022/07/28 08:09:21;;;;;;;;;0.50;0.00;;;;;17.39;51.05;102026.69;5004211;28;8924;-66
2022/07/28 08:11:48;;;;;;;;;0.00;0.00;;;;;17.40;50.53;102019.34;5003056;28;8937;-67
2022/07/28 08:14:15;;;;;;;;;1.75;0.25;;;;;17.44;49.19;102016.00;5004860;28;8930;-67
2022/07/28 08:16:43;;;;;;;;;0.50;0.00;;;;;17.46;49.64;102021.22;4985969;28;8948;-66
2022/07/28 08:19:10;;;;;;;;;0.00;0.00;;;;;17.43;49.26;102013.50;5006538;28;8842;-66
2022/07/28 08:21:37;;;;;;;;;0.00;0.00;;;;;17.34;50.13;102021.06;5003571;28;8845;-66
2022/07/28 08:24:03;;;;;;;;;0.00;0.00;;;;;17.35;49.52;102013.72;5002386;28;8951;-67
2022/07/28 08:26:30;;;;;;;;;0.50;0.50;;;;;17.45;49.64;102011.38;5001812;28;8826;-66
2022/07/28 08:28:56;;;;;;;;;0.00;0.00;;;;;17.50;49.39;102012.44;5004653;28;8823;-66
2022/07/28 08:31:23;;;;;;;;;0.00;0.00;;;;;17.62;49.25;102004.44;4988877;28;8823;-66
2022/07/28 08:33:50;;;;;;;;;0.25;0.00;;;;;17.70;49.41;102008.81;5003754;28;8839;-66
2022/07/28 08:36:20;;;;;;;;;0.00;0.00;;;;;17.66;49.30;102003.00;5002218;28;9531;-67
2022/07/28 08:38:46;;;;;;;;;0.00;0.00;;;;;17.76;49.36;102003.41;5004242;28;8834;-67
2022/07/28 08:41:20;;;;;;;;;1.25;1.00;;;;;17.85;48.24;102004.00;4999732;28;8851;-67
2022/07/28 08:43:50;;;;;;;;;0.00;0.00;;;;;17.80;47.98;102006.53;5002404;28;8823;-66
2022/07/28 08:46:19;;;;;;;;;1.25;0.00;;;;;17.76;48.00;102006.13;5003416;28;8823;-67
2022/07/28 08:48:46;;;;;;;;;0.50;0.50;;;;;17.79;48.35;102004.88;5001781;28;8827;-66
2022/07/28 08:51:14;;;;;;;;;0.00;0.00;;;;;17.75;48.99;102001.75;4999502;28;8819;-67
2022/07/28 08:53:42;;;;;;;;;0.00;0.00;;;;;17.76;49.10;102008.84;5001408;28;8935;-66
2022/07/28 08:56:13;;;;;;;;;0.00;0.00;;;;;17.76;47.60;101997.97;5004843;28;8815;-65
2022/07/28 08:58:39;;;;;;;;;0.00;0.00;;;;;17.78;48.67;102003.19;5004031;28;8836;-66
2022/07/28 09:01:07;;;;;;;;;1.00;0.00;;;;;17.76;48.59;101999.84;5004004;28;8816;-65
2022/07/28 09:03:35;;;;;;;;;0.00;0.00;;;;;17.65;48.36;102003.19;5002271;28;8797;-66
2022/07/28 09:06:02;;;;;;;;;0.00;0.00;;;;;17.71;48.80;102005.91;5001588;28;8836;-66
2022/07/28 09:08:28;;;;;;;;;0.00;0.00;;;;;17.88;48.34;102000.88;5003801;28;8831;-66
2022/07/28 09:10:54;;;;;;;;;1.50;0.00;;;;;17.99;48.76;102007.53;5006642;28;8831;-66
2022/07/28 09:13:21;;;;;;;;;0.75;0.25;;;;;18.04;47.38;102003.09;5002732;28;8895;-65
2022/07/28 09:15:48;;;;;;;;;0.25;0.25;;;;;18.13;46.28;102011.88;5002979;28;8948;-67
2022/07/28 09:18:16;;;;;;;;;1.00;1.00;;;;;18.16;46.10;102006.00;5000917;28;8831;-67
2022/07/28 09:20:44;;;;;;;;;0.00;0.00;;;;;18.24;46.05;102013.94;4984907;28;8833;-67
2022/07/28 09:23:11;;;;;;;;;0.00;0.00;;;;;18.33;46.56;102005.50;4997297;28;9580;-68
2022/07/28 09:26:06;;;;;;;;;0.00;0.00;;;;;18.43;46.17;102014.03;5000432;28;8827;-67
2022/07/28 09:28:48;;;;;;;;;0.00;0.00;;;;;18.44;46.97;102010.28;4997198;28;8817;-68
2022/07/28 09:31:15;;;;;;;;;0.00;0.00;;;;;18.49;46.90;102007.72;4996803;28;9615;-67
2022/07/28 09:34:12;;;;;;;;;0.00;0.00;;;;;18.49;46.89;102005.84;4981435;28;8834;-68
2022/07/28 09:36:40;;;;;;;;;0.25;0.00;;;;;18.37;46.10;102010.31;4985454;28;8862;-68
2022/07/28 09:39:07;;;;;;;;;1.00;0.00;;;;;18.34;46.38;102002.53;4998248;28;8935;-69
2022/07/28 09:41:48;;;;;;;;;0.00;0.00;;;;;18.37;47.13;102004.00;4996935;28;8853;-67
2022/07/28 09:44:19;;;;;;;;;0.75;0.75;;;;;18.46;46.10;102005.44;5000925;28;8835;-68
2022/07/28 09:46:45;;;;;;;;;0.00;0.00;;;;;18.42;45.35;101994.13;5003851;28;8814;-68
2022/07/28 09:49:12;;;;;;;;;0.50;0.50;;;;;18.41;45.50;101997.06;5002880;28;8928;-67
2022/07/28 09:51:40;;;;;;;;;0.50;0.00;;;;;18.45;45.22;102006.50;4993069;28;8891;-67
2022/07/28 09:54:16;;;;;;;;;0.00;0.00;;;;;18.42;44.50;101994.13;4998947;28;8820;-65
2022/07/28 09:56:44;;;;;;;;;0.00;0.00;;;;;18.48;45.20;101986.97;4996766;28;8849;-67
2022/07/28 09:59:12;;;;;;;;;0.00;0.00;;;;;18.58;45.50;101995.50;4994926;28;8833;-67
2022/07/28 10:01:57;;;;;;;;;0.75;0.50;;;;;18.56;45.67;101997.63;4999645;28;8868;-67
2022/07/28 10:04:36;;;;;;;;;0.75;0.75;;;;;18.59;45.54;101996.31;4995521;28;8837;-67
2022/07/28 10:07:10;;;;;;;;;0.00;0.00;;;;;18.65;45.74;101998.19;5003111;28;8833;-68
2022/07/28 10:09:37;;;;;;;;;0.00;0.00;;;;;18.68;44.93;101998.59;5005316;28;8845;-65
2022/07/28 10:12:23;;;;;;;;;0.75;0.00;;;;;18.63;45.05;101990.22;4995166;28;8853;-66
2022/07/28 10:14:52;;;;;;;;;2.00;1.00;;;;;18.58;45.90;101983.75;5008804;28;8934;-67
2022/07/28 10:17:30;;;;;;;;;0.25;0.25;;;;;18.61;45.42;101992.34;5009623;28;8823;-66
2022/07/28 10:20:05;;;;;;;;;2.00;0.00;;;;;18.70;45.26;101985.59;4998286;28;8833;-63
2022/07/28 10:22:36;;;;;;;;;0.25;0.25;;;;;18.78;45.43;101985.31;5002013;28;8861;-67
2022/07/28 10:25:13;;;;;;;;;1.25;1.00;;;;;18.85;45.16;101989.91;5006108;28;8819;-65
2022/07/28 10:27:41;;;;;;;;;0.00;0.00;;;;;18.92;45.08;101991.53;5010283;28;8953;-65
2022/07/28 10:30:09;;;;;;;;;0.25;0.00;;;;;19.00;44.56;101988.53;5010212;28;8850;-64
2022/07/28 10:32:43;;;;;;;;;0.00;0.00;;;;;18.94;44.09;101981.22;5002927;28;8859;-68
2022/07/28 10:35:12;;;;;;;;;0.00;0.00;;;;;19.01;44.23;101983.91;5013347;28;8966;-66
2022/07/28 10:38:12;;;;;;;;;0.00;0.00;;;;;19.14;43.85;101982.94;5009978;28;8831;-65
2022/07/28 10:40:41;;;;;;;;;0.00;0.00;;;;;19.16;42.17;101976.22;4979683;28;8968;-66
2022/07/28 10:43:08;;;;;;;;;1.00;1.00;;;;;19.01;42.26;101972.97;4975794;28;8813;-65
2022/07/28 10:45:34;;;;;;;;;0.00;0.00;;;;;18.93;42.78;101974.09;4982979;28;8941;-65
2022/07/28 10:48:21;;;;;;;;;0.00;0.00;;;;;18.95;43.31;101980.16;5004477;28;8842;-69
2022/07/28 10:50:51;;;;;;;;;0.00;0.00;;;;;18.91;43.05;101968.00;5010518;28;8839;-68
2022/07/28 10:53:36;;;;;;;;;0.75;0.75;;;;;18.93;43.13;101957.72;5010777;28;8844;-65
2022/07/28 10:56:13;;;;;;;;;0.00;0.00;;;;;18.94;43.25;101961.28;4992716;28;9584;-68
2022/07/28 10:58:57;;;;;;;;;0.00;0.00;;;;;18.98;43.35;101959.78;4990736;28;8813;-66
2022/07/28 11:01:35;;;;;;;;;0.25;0.25;;;;;19.02;44.29;101961.00;4990917;28;8840;-66
2022/07/28 11:04:46;;;;;;;;;1.00;0.00;;;;;19.07;43.74;101952.97;4993750;28;8849;-67
2022/07/28 11:07:18;;;;;;;;;0.00;0.00;;;;;19.15;43.77;101947.22;4989092;28;8890;-66
2022/07/28 11:09:46;;;;;;;;;1.50;1.50;;;;;19.18;43.05;101941.31;5011119;28;8914;-66
2022/07/28 11:12:16;;;;;;;;;0.25;0.25;;;;;19.24;43.08;101945.03;5011319;28;8863;-67
2022/07/28 11:14:43;;;;;;;;;1.00;1.00;;;;;19.27;42.34;101942.69;4994519;28;8847;-67
2022/07/28 11:17:11;;;;;;;;;0.00;0.00;;;;;19.31;43.21;101942.25;5009275;28;8820;-68
2022/07/28 11:19:44;;;;;;;;;0.00;0.00;;;;;19.42;43.56;101941.53;5005946;28;8843;-64
2022/07/28 11:22:32;;;;;;;;;0.50;0.25;;;;;19.49;42.86;101937.66;5016490;28;8937;-64
2022/07/28 11:25:03;;;;;;;;;0.00;0.00;;;;;19.48;43.71;101949.63;4992805;28;8869;-64
2022/07/28 11:27:49;;;;;;;;;0.00;0.00;;;;;19.43;44.19;101948.63;4994819;28;8813;-66
2022/07/28 11:30:32;;;;;;;;;1.00;1.00;;;;;19.43;43.69;101954.09;4995339;28;8848;-67
2022/07/28 11:33:00;;;;;;;;;1.00;0.75;;;;;19.37;43.08;101950.41;4993764;28;8811;-66
2022/07/28 11:35:31;;;;;;;;;0.75;0.75;;;;;19.33;43.23;101951.06;5012636;28;8843;-65
2022/07/28 11:38:00;;;;;;;;;2.00;2.00;;;;;19.25;42.24;101938.53;4998733;28;8833;-65
2022/07/28 11:40:36;;;;;;;;;0.00;0.00;;;;;19.31;41.55;101936.78;5005305;28;8828;-65
2022/07/28 11:46:03;;;;;;;;;0.75;0.75;;;;;19.53;41.95;101943.50;4993083;28;8857;-67
2022/07/28 11:48:43;;;;;;;;;0.00;0.00;;;;;19.54;41.79;101936.13;4999660;28;8897;-67
2022/07/28 11:51:11;;;;;;;;;0.00;0.00;;;;;19.55;42.51;101924.16;5003176;28;8837;-67